createdAt,value
2022-09-05T00:00:31.800Z,99078.81
2022-09-05T00:03:22.176Z,99079.94
2022-09-05T00:06:10.636Z,99079.81
2022-09-05T00:09:01.982Z,99083.06
2022-09-05T00:11:55.230Z,99076.69
2022-09-05T00:15:17.464Z,99070.47
2022-09-05T00:23:38.700Z,99078.78
2022-09-05T00:24:27.648Z,99074.06
2022-09-05T00:28:25.794Z,99074.09
2022-09-05T00:31:54.603Z,99067.69
2022-09-05T00:34:47.342Z,99061.34
2022-09-05T00:37:37.048Z,99058.72
2022-09-05T00:40:31.288Z,99064.94
2022-09-05T00:43:20.983Z,99062.78
2022-09-05T00:46:10.428Z,99059.88
2022-09-05T00:49:09.524Z,99062.63
2022-09-05T00:52:01.221Z,99065.91
2022-09-05T00:55:11.318Z,99071.59
2022-09-05T00:58:09.533Z,99063.78
2022-09-05T01:00:58.950Z,99063.31
2022-09-05T01:03:56.696Z,99068.84
2022-09-05T01:06:53.751Z,99077.03
2022-09-05T01:09:52.228Z,99080.75
2022-09-05T01:12:52.722Z,99077.84
2022-09-05T01:15:47.606Z,99076.03
2022-09-05T01:19:01.840Z,99074.25
2022-09-05T01:22:09.447Z,99076.88
2022-09-05T01:25:08.827Z,99072.63
2022-09-05T01:29:14.054Z,99077.59
2022-09-05T01:31:11.620Z,99076.22
2022-09-05T01:34:05.964Z,99076.47
2022-09-05T01:37:00.105Z,99077.69
2022-09-05T01:40:12.172Z,99079.44
2022-09-05T01:43:06.755Z,99075.69
2022-09-05T01:45:56.904Z,99074.84
2022-09-05T01:48:50.410Z,99070.63
2022-09-05T01:51:42.593Z,99065.72
2022-09-05T01:54:37.087Z,99072.38
2022-09-05T01:57:30.774Z,99070.59
2022-09-05T02:00:24.091Z,99076.31
2022-09-05T02:03:20.270Z,99066.50
2022-09-05T02:06:29.129Z,99065.69
2022-09-05T02:09:28.126Z,99068.13
2022-09-05T02:12:23.157Z,99064.84
2022-09-05T02:15:16.245Z,99068.72
2022-09-05T02:18:07.917Z,99072.63
2022-09-05T02:20:58.721Z,99075.91
2022-09-05T02:23:48.156Z,99075.06
2022-09-05T02:26:39.314Z,99067.91
2022-09-05T02:29:30.027Z,99073.63
2022-09-05T02:32:21.298Z,99082.44
2022-09-05T02:35:17.615Z,99073.47
2022-09-05T02:39:27.024Z,99074.59
2022-09-05T02:45:10.436Z,99084.56
2022-09-05T02:45:17.001Z,99086.66
2022-09-05T02:47:43.784Z,99088.94
2022-09-05T02:57:29.509Z,99090.91
2022-09-05T02:57:36.377Z,99098.66
2022-09-05T02:57:42.880Z,99087.22
2022-09-05T03:00:15.625Z,99084.53
2022-09-05T03:03:24.889Z,99087.34
2022-09-05T03:06:35.031Z,99093.22
2022-09-05T03:09:31.238Z,99096.25
2022-09-05T03:12:53.148Z,99087.44
2022-09-05T03:16:02.588Z,99092.06
2022-09-05T03:19:46.484Z,99094.25
2022-09-05T03:23:01.577Z,99096.66
2022-09-05T03:26:20.131Z,99092.28
2022-09-05T03:29:34.310Z,99099.03
2022-09-05T03:32:49.062Z,99106.69
2022-09-05T03:36:12.077Z,99112.25
2022-09-05T03:39:25.859Z,99109.50
2022-09-05T03:42:30.925Z,99110.13
2022-09-05T03:46:02.473Z,99105.91
2022-09-05T03:50:05.866Z,99105.81
2022-09-05T03:57:07.654Z,99112.63
2022-09-05T03:57:24.631Z,99110.38
2022-09-05T03:58:58.934Z,99114.47
2022-09-05T04:03:14.489Z,99112.06
2022-09-05T04:08:08.536Z,99120.16
2022-09-05T04:08:34.116Z,99126.22
2022-09-05T04:11:23.760Z,99124.13
2022-09-05T04:14:13.219Z,99128.34
2022-09-05T04:17:03.478Z,99132.44
2022-09-05T04:19:59.873Z,99128.16
2022-09-05T04:23:05.875Z,99132.06
2022-09-05T04:26:11.232Z,99138.09
2022-09-05T04:29:15.187Z,99134.66
2022-09-05T04:32:19.245Z,99147.22
2022-09-05T04:35:26.379Z,99140.28
2022-09-05T04:38:15.461Z,99144.38
2022-09-05T04:41:03.721Z,99148.56
2022-09-05T04:43:52.443Z,99151.75
2022-09-05T04:46:48.243Z,99155.00
2022-09-05T04:49:41.942Z,99153.28
2022-09-05T04:52:46.996Z,99164.22
2022-09-05T04:55:40.449Z,99168.19
2022-09-05T04:59:41.930Z,99154.75
2022-09-05T05:06:16.279Z,99167.50
2022-09-05T05:06:17.109Z,99167.63
2022-09-05T05:08:16.373Z,99171.72
2022-09-05T05:17:54.142Z,99177.16
2022-09-05T05:18:07.634Z,99172.06
2022-09-05T05:18:08.145Z,99180.31
2022-09-05T05:20:54.005Z,99178.97
2022-09-05T05:23:43.039Z,99177.50
2022-09-05T05:26:32.605Z,99176.13
2022-09-05T05:29:22.108Z,99174.31
2022-09-05T05:32:09.100Z,99173.41
2022-09-05T05:34:59.263Z,99176.03
2022-09-05T05:37:48.073Z,99174.06
2022-09-05T05:40:40.972Z,99176.56
2022-09-05T05:43:44.073Z,99183.94
2022-09-05T05:46:36.481Z,99179.13
2022-09-05T05:49:40.124Z,99182.53
2022-09-05T05:52:50.916Z,99178.38
2022-09-05T05:55:51.616Z,99183.72
2022-09-05T05:58:53.763Z,99181.78
2022-09-05T06:02:22.261Z,99180.41
2022-09-05T06:05:29.110Z,99187.53
2022-09-05T06:10:02.415Z,99187.44
2022-09-05T06:14:58.707Z,99187.72
2022-09-05T06:15:55.395Z,99186.31
2022-09-05T06:20:05.329Z,99189.81
2022-09-05T06:23:39.527Z,99186.75
2022-09-05T06:27:02.340Z,99192.13
2022-09-05T06:29:57.100Z,99190.09
2022-09-05T06:33:16.741Z,99180.16
2022-09-05T06:36:15.415Z,99182.59
2022-09-05T06:39:11.370Z,99189.94
2022-09-05T06:42:15.074Z,99184.66
2022-09-05T06:45:37.855Z,99196.00
2022-09-05T06:48:44.586Z,99194.75
2022-09-05T06:52:09.746Z,99193.97
2022-09-05T06:55:27.672Z,99202.06
2022-09-05T06:58:32.779Z,99206.91
2022-09-05T07:01:45.955Z,99201.13
2022-09-05T07:05:23.440Z,99208.72
2022-09-05T07:07:47.333Z,99202.47
2022-09-05T07:10:39.358Z,99201.63
2022-09-05T07:13:33.832Z,99199.19
2022-09-05T07:16:37.297Z,99214.19
2022-09-05T07:19:28.526Z,99203.28
2022-09-05T07:22:48.001Z,99207.63
2022-09-05T07:25:37.506Z,99209.94
2022-09-05T07:28:29.487Z,99213.34
2022-09-05T07:31:26.491Z,99204.06
2022-09-05T07:34:29.147Z,99212.88
2022-09-05T07:37:19.687Z,99215.31
2022-09-05T07:40:24.743Z,99205.66
2022-09-05T07:43:19.061Z,99214.13
2022-09-05T07:46:13.346Z,99216.91
2022-09-05T07:49:02.870Z,99219.63
2022-09-05T07:55:20.402Z,99226.38
2022-09-05T07:56:49.750Z,99219.44
2022-09-05T07:58:14.955Z,99220.72
2022-09-05T08:01:02.022Z,99212.31
2022-09-05T08:03:55.694Z,99216.56
2022-09-05T08:07:45.491Z,99211.97
2022-09-05T08:10:08.154Z,99210.91
2022-09-05T08:13:24.425Z,99211.06
2022-09-05T08:16:10.763Z,99220.81
2022-09-05T08:19:10.873Z,99217.28
2022-09-05T08:21:59.397Z,99203.50
2022-09-05T08:24:55.343Z,99205.91
2022-09-05T08:27:56.413Z,99198.13
2022-09-05T08:30:46.399Z,99191.34
2022-09-05T08:33:34.956Z,99188.94
2022-09-05T08:36:28.360Z,99196.13
2022-09-05T08:39:18.053Z,99191.22
2022-09-05T08:42:24.238Z,99200.56
2022-09-05T08:46:48.401Z,99184.06
2022-09-05T08:48:30.474Z,99183.06
2022-09-05T08:51:30.408Z,99184.47
2022-09-05T08:54:20.429Z,99188.63
2022-09-05T08:57:18.075Z,99189.34
2022-09-05T09:00:20.821Z,99174.09
2022-09-05T09:03:16.950Z,99169.97
2022-09-05T09:06:30.145Z,99175.22
2022-09-05T09:09:18.595Z,99168.50
2022-09-05T09:12:16.117Z,99165.41
2022-09-05T09:15:05.930Z,99164.88
2022-09-05T09:17:53.201Z,99166.72
2022-09-05T09:20:48.626Z,99166.47
2022-09-05T09:23:47.482Z,99158.13
2022-09-05T09:26:38.502Z,99158.38
2022-09-05T09:29:27.885Z,99167.09
2022-09-05T09:32:19.413Z,99171.03
2022-09-05T09:35:10.834Z,99171.94
2022-09-05T09:38:21.413Z,99163.06
2022-09-05T09:41:40.707Z,99157.16
2022-09-05T09:44:57.386Z,99148.88
2022-09-05T09:48:08.986Z,99154.38
2022-09-05T09:51:31.275Z,99146.38
2022-09-05T09:55:17.274Z,99154.09
2022-09-05T09:58:22.504Z,99154.56
2022-09-05T10:01:35.845Z,99163.06
2022-09-05T10:10:34.751Z,99153.59
2022-09-05T10:11:00.369Z,99139.56
2022-09-05T10:11:54.175Z,99137.84
2022-09-05T10:15:30.556Z,99141.78
2022-09-05T10:18:31.779Z,99145.88
2022-09-05T10:21:32.515Z,99128.25
2022-09-05T10:24:50.319Z,99140.16
2022-09-05T10:28:03.022Z,99135.28
2022-09-05T10:32:13.712Z,99132.72
2022-09-05T10:35:09.739Z,99139.34
2022-09-05T10:37:20.597Z,99127.31
2022-09-05T10:40:11.088Z,99120.03
2022-09-05T10:43:02.309Z,99126.75
2022-09-05T10:45:49.188Z,99109.72
2022-09-05T10:48:42.735Z,99119.53
2022-09-05T10:51:37.926Z,99110.47
2022-09-05T10:54:35.749Z,99104.56
2022-09-05T10:57:33.096Z,99101.56
2022-09-05T11:02:24.157Z,99111.06
2022-09-05T11:03:53.395Z,99103.03
2022-09-05T11:06:54.988Z,99113.13
2022-09-05T11:09:53.381Z,99102.81
2022-09-05T11:12:57.745Z,99116.50
2022-09-05T11:16:04.637Z,99109.44
2022-09-05T11:18:59.376Z,99100.09
2022-09-05T11:22:04.267Z,99104.75
2022-09-05T11:25:05.135Z,99097.44
2022-09-05T11:27:56.123Z,99099.81
2022-09-05T11:30:46.579Z,99105.34
2022-09-05T11:39:46.814Z,99092.63
2022-09-05T11:40:02.214Z,99096.53
2022-09-05T11:40:47.935Z,99098.44
2022-09-05T11:44:25.611Z,99088.28
2022-09-05T11:48:04.118Z,99088.13
2022-09-05T11:51:14.711Z,99091.69
2022-09-05T11:54:30.475Z,99092.97
2022-09-05T11:57:34.133Z,99096.34
2022-09-05T12:00:33.081Z,99087.91
2022-09-05T12:03:59.680Z,99091.69
2022-09-05T12:07:16.069Z,99080.81
2022-09-05T12:10:43.552Z,99079.25
2022-09-05T12:13:42.604Z,99086.41
2022-09-05T12:16:47.298Z,99074.31
2022-09-05T12:19:38.728Z,99075.47
2022-09-05T12:22:29.758Z,99082.69
2022-09-05T12:27:41.008Z,99071.78
2022-09-05T12:29:32.654Z,99080.34
2022-09-05T12:33:03.361Z,99066.69
2022-09-05T12:36:13.345Z,99074.41
2022-09-05T12:40:59.379Z,99089.81
2022-09-05T12:42:14.805Z,99069.44
2022-09-05T12:45:09.937Z,99078.78
2022-09-05T12:48:01.097Z,99072.97
2022-09-05T12:50:55.869Z,99075.13
2022-09-05T12:53:44.801Z,99078.03
2022-09-05T12:59:30.073Z,99064.06
2022-09-05T13:03:00.955Z,99061.91
2022-09-05T13:03:01.531Z,99068.28
2022-09-05T13:06:06.770Z,99061.00
2022-09-05T13:08:59.746Z,99067.94
2022-09-05T13:14:50.428Z,99063.25
2022-09-05T13:15:20.120Z,99067.22
2022-09-05T13:18:13.191Z,99069.38
2022-09-05T13:21:07.812Z,99058.66
2022-09-05T13:24:10.180Z,99054.09
2022-09-05T13:26:58.077Z,99053.53
2022-09-05T13:30:46.921Z,99062.13
2022-09-05T13:38:10.924Z,99043.59
2022-09-05T13:38:11.032Z,99050.66
2022-09-05T13:39:23.043Z,99053.78
2022-09-05T13:42:18.430Z,99053.56
2022-09-05T13:45:06.220Z,99056.25
2022-09-05T13:48:28.167Z,99046.03
2022-09-05T13:51:27.720Z,99044.81
2022-09-05T13:54:34.312Z,99051.91
2022-09-05T13:57:33.455Z,99043.72
2022-09-05T14:00:56.842Z,99041.00
2022-09-05T14:04:11.804Z,99051.22
2022-09-05T14:07:44.906Z,99038.31
2022-09-05T14:10:50.192Z,99044.34
2022-09-05T14:13:55.315Z,99042.72
2022-09-05T14:16:53.671Z,99038.94
2022-09-05T14:19:58.497Z,99033.88
2022-09-05T14:22:51.403Z,99031.69
2022-09-05T14:25:40.520Z,99034.53
2022-09-05T14:28:33.012Z,99015.31
2022-09-05T14:35:06.468Z,99013.25
2022-09-05T14:37:45.592Z,99022.19
2022-09-05T14:38:00.624Z,99015.38
2022-09-05T14:40:30.242Z,99010.53
2022-09-05T14:43:14.217Z,99019.72
2022-09-05T14:46:00.273Z,99020.03
2022-09-05T14:48:56.543Z,99009.66
2022-09-05T14:51:45.453Z,99005.94
2022-09-05T15:02:38.331Z,99009.75
2022-09-05T15:02:53.850Z,99018.09
2022-09-05T15:03:05.088Z,99009.50
2022-09-05T15:05:42.182Z,99003.09
2022-09-05T15:08:18.311Z,99006.72
2022-09-05T15:12:19.616Z,99010.72
2022-09-05T15:14:03.793Z,99005.50
2022-09-05T15:16:35.634Z,98994.94
2022-09-05T15:19:05.897Z,99006.31
2022-09-05T15:21:38.254Z,98995.63
2022-09-05T15:24:17.247Z,98996.00
2022-09-05T15:26:52.894Z,98995.84
2022-09-05T15:29:23.944Z,98996.38
2022-09-05T15:32:09.190Z,98992.34
2022-09-05T15:34:40.394Z,98992.06
2022-09-05T15:37:24.603Z,98988.75
2022-09-05T15:40:23.319Z,98981.19
2022-09-05T15:42:55.520Z,98981.91
2022-09-05T15:45:28.360Z,98982.69
2022-09-05T15:48:18.514Z,98997.00
2022-09-05T15:50:51.393Z,98976.22
2022-09-05T15:53:24.612Z,98978.25
2022-09-05T15:56:00.902Z,98988.16
2022-09-05T15:58:52.660Z,98991.22
2022-09-05T16:01:48.521Z,98988.94
2022-09-05T16:10:27.241Z,98980.06
2022-09-05T16:10:42.867Z,98979.38
2022-09-05T16:10:48.890Z,98982.91
2022-09-05T16:12:46.710Z,98986.75
2022-09-05T16:17:31.335Z,98981.44
2022-09-05T16:23:23.943Z,98979.38
2022-09-05T16:23:30.459Z,98976.56
2022-09-05T16:24:00.750Z,98981.16
2022-09-05T16:26:33.448Z,98974.88
2022-09-05T16:29:04.252Z,98965.47
2022-09-05T16:31:37.142Z,98977.31
2022-09-05T16:34:12.059Z,98974.91
2022-09-05T16:36:57.933Z,98968.16
2022-09-05T16:39:40.999Z,98974.22
2022-09-05T16:42:15.285Z,98968.75
2022-09-05T16:44:48.261Z,98965.25
2022-09-05T16:47:24.592Z,98965.28
2022-09-05T16:50:00.342Z,98963.13
2022-09-05T16:52:35.076Z,98965.72
2022-09-05T16:55:10.046Z,98961.91
2022-09-05T16:57:41.269Z,98959.69
2022-09-05T17:00:11.113Z,98967.59
2022-09-05T17:02:44.189Z,98966.09
2022-09-05T17:05:14.537Z,98973.41
2022-09-05T17:07:59.196Z,98963.56
2022-09-05T17:10:32.085Z,98961.41
2022-09-05T17:13:00.233Z,98959.56
2022-09-05T17:15:30.669Z,98964.97
2022-09-05T17:18:22.565Z,98965.34
2022-09-05T17:20:56.080Z,98960.97
2022-09-05T17:29:19.544Z,98968.25
2022-09-05T17:29:23.472Z,98964.94
2022-09-05T17:32:35.302Z,98972.22
2022-09-05T17:35:18.049Z,98979.22
2022-09-05T17:38:11.864Z,98978.34
2022-09-05T17:41:06.365Z,98981.56
2022-09-05T17:43:38.740Z,98987.59
2022-09-05T17:46:17.961Z,98985.81
2022-09-05T17:49:19.323Z,98991.84
2022-09-05T17:52:28.403Z,98992.16
2022-09-05T17:54:57.635Z,99000.31
2022-09-05T17:57:45.344Z,99003.91
2022-09-05T18:01:05.648Z,98999.88
2022-09-05T18:04:16.514Z,99007.59
2022-09-05T18:06:58.935Z,99004.94
2022-09-05T18:10:14.825Z,99002.97
2022-09-05T18:16:10.802Z,99015.88
2022-09-05T18:19:33.271Z,99010.06
2022-09-05T18:21:49.762Z,99022.63
2022-09-05T18:24:25.005Z,99019.31
2022-09-05T18:27:30.847Z,99017.91
2022-09-05T18:29:58.428Z,99014.19
2022-09-05T18:32:42.080Z,99021.59
2022-09-05T18:35:32.185Z,99017.81
2022-09-05T18:38:17.040Z,99028.84
2022-09-05T18:40:51.608Z,99024.72
2022-09-05T18:43:33.191Z,99026.13
2022-09-05T18:46:08.374Z,99024.94
2022-09-05T18:49:02.266Z,99020.72
2022-09-05T18:51:36.461Z,99023.91
2022-09-05T18:54:20.052Z,99015.63
2022-09-05T18:57:24.089Z,99023.91
2022-09-05T18:59:48.578Z,99015.53
2022-09-05T19:02:41.115Z,99021.34
2022-09-05T19:05:16.179Z,99014.72
2022-09-05T19:07:48.193Z,99018.09
2022-09-05T19:10:34.355Z,99018.22
2022-09-05T19:13:10.412Z,99012.81
2022-09-05T19:15:48.137Z,99014.78
2022-09-05T19:18:26.071Z,99017.28
2022-09-05T19:21:12.337Z,99018.72
2022-09-05T19:23:54.747Z,99012.75
2022-09-05T19:26:25.485Z,99003.78
2022-09-05T19:36:46.280Z,99002.81
2022-09-05T19:36:53.006Z,98996.19
2022-09-05T19:37:05.471Z,99001.06
2022-09-05T19:37:38.580Z,98998.41
2022-09-05T19:47:25.509Z,98997.22
2022-09-05T19:47:36.582Z,98996.72
2022-09-05T19:47:42.433Z,98994.16
2022-09-05T19:48:36.615Z,98994.75
2022-09-05T19:51:17.420Z,98991.13
2022-09-05T19:53:47.879Z,98989.31
2022-09-05T19:56:25.697Z,98989.06
2022-09-05T19:58:55.458Z,98978.78
2022-09-05T20:01:23.616Z,98990.84
2022-09-05T20:03:53.953Z,98982.91
2022-09-05T20:06:29.078Z,98981.59
2022-09-05T20:09:10.025Z,98982.81
2022-09-05T20:11:45.638Z,98981.28
2022-09-05T20:14:22.014Z,98981.94
2022-09-05T20:16:51.033Z,98982.94
2022-09-05T20:19:31.251Z,98980.41
2022-09-05T20:22:10.085Z,98979.84
2022-09-05T20:24:51.388Z,98976.38
2022-09-05T20:27:27.164Z,98977.66
2022-09-05T20:30:00.075Z,98979.00
2022-09-05T20:32:39.291Z,98981.75
2022-09-05T20:38:59.669Z,98988.28
2022-09-05T20:43:09.482Z,98981.78
2022-09-05T20:43:25.331Z,98976.22
2022-09-05T20:43:53.552Z,98975.56
2022-09-05T20:51:31.559Z,98980.16
2022-09-05T20:54:21.962Z,98987.81
2022-09-05T20:54:22.775Z,98984.88
2022-09-05T20:55:38.331Z,98981.47
2022-09-05T20:58:10.711Z,98981.75
2022-09-05T21:00:40.235Z,98978.88
2022-09-05T21:03:26.785Z,98982.41
2022-09-05T21:05:55.645Z,98980.66
2022-09-05T21:08:32.980Z,98989.56
2022-09-05T21:11:04.050Z,98983.47
2022-09-05T21:13:34.054Z,98974.94
2022-09-05T21:16:04.540Z,98982.66
2022-09-05T21:18:34.281Z,98986.13
2022-09-05T21:21:27.915Z,98987.34
2022-09-05T21:24:15.818Z,98984.59
2022-09-05T21:26:49.539Z,98989.91
2022-09-05T21:29:27.277Z,98986.81
2022-09-05T21:32:04.034Z,98995.75
2022-09-05T21:34:45.765Z,98995.22
2022-09-05T21:37:18.430Z,98993.88
2022-09-05T21:39:59.436Z,98992.72
2022-09-05T21:46:30.078Z,98986.38
2022-09-05T21:47:43.440Z,98991.97
2022-09-05T21:48:15.151Z,98989.50
2022-09-05T21:50:48.024Z,98977.59
2022-09-05T21:56:31.796Z,98986.91
2022-09-05T21:59:27.218Z,98982.28
2022-09-05T21:59:29.385Z,98986.19
2022-09-05T22:02:01.575Z,98990.75
2022-09-05T22:04:40.976Z,98998.56
2022-09-05T22:07:14.492Z,99004.09
2022-09-05T22:09:43.114Z,98997.75
2022-09-05T22:12:30.044Z,98997.63
2022-09-05T22:15:07.332Z,98987.25
2022-09-05T22:17:48.204Z,98993.22
2022-09-05T22:20:20.404Z,98989.78
2022-09-05T22:22:56.590Z,98986.44
2022-09-05T22:25:28.333Z,98987.88
2022-09-05T22:28:01.011Z,98986.81
2022-09-05T22:30:29.466Z,98990.69
2022-09-05T22:32:58.005Z,98975.69
2022-09-05T22:35:28.560Z,98978.00
2022-09-05T22:38:05.956Z,98967.06
2022-09-05T22:40:37.066Z,98973.63
2022-09-05T22:43:06.880Z,98963.47
2022-09-05T22:45:38.541Z,98959.91
2022-09-05T22:48:09.142Z,98973.84
2022-09-05T22:50:37.690Z,98962.56
2022-09-05T22:53:08.747Z,98962.38
2022-09-05T22:55:38.024Z,98952.44
2022-09-05T22:58:07.215Z,98963.81
2022-09-05T23:00:35.403Z,98962.91
2022-09-05T23:03:06.620Z,98954.16
2022-09-05T23:05:35.105Z,98954.06
2022-09-05T23:08:04.875Z,98958.50
2022-09-05T23:10:35.078Z,98949.66
2022-09-05T23:13:05.064Z,98945.69
2022-09-05T23:15:33.706Z,98949.81
2022-09-05T23:18:02.260Z,98963.66
2022-09-05T23:20:32.265Z,98955.22
2022-09-05T23:23:04.270Z,98951.88
2022-09-05T23:25:34.063Z,98947.19
2022-09-05T23:28:06.329Z,98950.09
2022-09-05T23:30:35.273Z,98944.09
2022-09-05T23:33:05.868Z,98949.91
2022-09-05T23:35:34.253Z,98944.59
2022-09-05T23:38:03.104Z,98953.34
2022-09-05T23:40:31.352Z,98948.69
2022-09-05T23:43:01.321Z,98940.25
2022-09-05T23:45:30.198Z,98942.72
2022-09-05T23:47:58.718Z,98937.31
2022-09-05T23:50:27.752Z,98932.38
2022-09-05T23:52:56.293Z,98936.81
2022-09-05T23:55:24.741Z,98933.66
2022-09-05T23:57:58.374Z,98935.50
